Moses Lake, WA

3:18 PM PST en Enero 24, 2017 (GMT -0800)
Grant County International | | Change Station

Alt 1184 ft 47.21 °N, 119.32 °W | Updated 26 minutes ago

Nublado
Nublado
32 ° F
Sensación térmica 28 ° F
N
5
Viento Variable Viento desde ESE

Hoy
Alta -- | Baja -- ° F
--% Posibilidad de precipitaciones
Ayer
Alta -- | Baja -- ° F
Precip. -- pul
Presión 30.15 pul
Visibilidad 3.0 Millas
Nubes Nublado 800 ft
Vientos helados 28 ° F
Punto de rocío 27 ° F
Humedad 82%
Precipitaciones 0.00 pul
Espesor de la nieve No disponible.
7:31 AM 4:47 PM
Creciente menguante, 9% visible
METAR KMWH 242252Z 11004KT 3SM HZ OVC008 00/M03 A3010 RMK AO2 SLP208 T00001028
Presión 30.15 pul
Visibilidad 3.0 Millas
Nubes Nublado 800 ft
Vientos helados 28 ° F
Punto de rocío 27 ° F
Humedad 82%
Precipitaciones 0.00 pul
Espesor de la nieve No disponible.
7:31 AM 4:47 PM
Creciente menguante, 9% visible
METAR KMWH 242252Z 11004KT 3SM HZ OVC008 00/M03 A3010 RMK AO2 SLP208 T00001028

Get Your Daily Forecast Email!

Thanks for signing up!

Be on the lookout for a verification email in your inbox.

You'll start receiving the daily forecast at 8 AM.

×

10-Day Weather Forecast

Almanac

Astronomía

Jan. 24, 2017 Salida Puesta
Hora real
Crepúsculo civil
Crepúsculo náutico
Crepúsculo astronómico
Luna
Horas de luz
Horas de luz
Tomorrow will be .
, % of the Moon is Illuminated

Extremos de hoy

Máximos del estado Bajos del estado

Community

WunderPhotos

Upload Photos

1,962,540 ¡fotos cargadas!

WunderBlog® & News

Nearby

Calidad del aire

  Calidad del aire Índice AQ Contaminante
Not available.

Grosos de nieve

Estación Profundido Altura

Actividad de terremotos

Ciudad Distance Mag. Tiempo y dato
Magnitud mínima muestra es 2,5.

Temperaturas de aguas costeras

Lugar Temperatura

Stations

Estaciones meteorológicas cercanas

Ubicación de la estación Temp. Vientos helados Punto de rocío Humedad Viento Precip. Alt Actualizado Tipo
                   

Watches & Warnings

There are currently no watches in effect.